Time;durP1;ratioP1;P1;durP2;ratioP2;P2;SDS_P1;SDS_P2;PMS_P1;PMS_P2;Temp;Humidity;BMP_temperature;BMP_pressure;BME280_temperature;BME280_humidity;BME280_pressure;Samples;Min_cycle;Max_cycle;Signal;HPM_P1;HPM_P2
2021/11/05 00:04:31;;;;;;;41.83;25.50;;;;;;;6.98;100.00;100903.69;10278082;28;20481;-70
2021/11/05 00:09:30;;;;;;;47.42;28.23;;;;;;;6.88;100.00;100908.16;10285308;28;20095;-69
2021/11/05 00:14:26;;;;;;;44.22;27.10;;;;;;;6.95;100.00;100916.75;10271257;28;20076;-69
2021/11/05 00:19:23;;;;;;;46.65;25.45;;;;;;;6.90;100.00;100924.97;10280584;28;20064;-70
2021/11/05 00:24:20;;;;;;;42.72;23.40;;;;;;;6.89;100.00;100920.66;10274708;28;20055;-69
2021/11/05 00:29:16;;;;;;;46.20;24.85;;;;;;;6.90;100.00;100922.25;10274382;28;20147;-70
2021/11/05 00:34:17;;;;;;;40.97;23.92;;;;;;;6.96;100.00;100933.88;10275815;28;20743;-70
2021/11/05 00:39:16;;;;;;;37.33;19.77;;;;;;;6.87;100.00;100941.88;10255918;28;20083;-70
2021/11/05 00:44:13;;;;;;;44.70;25.35;;;;;;;6.90;100.00;100945.91;10255623;28;20126;-71
2021/11/05 00:49:09;;;;;;;40.40;24.05;;;;;;;6.85;100.00;100959.56;10276511;28;20053;-70
2021/11/05 00:54:08;;;;;;;36.78;21.40;;;;;;;6.89;100.00;100961.44;10289382;28;20434;-71
2021/11/05 00:59:04;;;;;;;43.95;22.48;;;;;;;6.85;100.00;100967.72;10271840;28;20056;-70
2021/11/05 01:04:01;;;;;;;42.05;23.85;;;;;;;6.82;100.00;100965.56;10286345;28;20045;-70
2021/11/05 01:08:57;;;;;;;34.10;21.73;;;;;;;6.79;100.00;100972.38;10275225;28;20048;-70
2021/11/05 01:13:55;;;;;;;39.13;21.52;;;;;;;6.75;100.00;100979.47;10270696;28;20076;-70
2021/11/05 01:18:51;;;;;;;38.33;22.80;;;;;;;6.85;100.00;100990.28;10278687;28;20041;-71
2021/11/05 01:23:48;;;;;;;46.55;22.60;;;;;;;6.88;100.00;100992.41;10277384;28;20123;-70
2021/11/05 01:28:45;;;;;;;35.63;19.85;;;;;;;6.86;100.00;101005.47;10280984;28;20124;-71
2021/11/05 01:33:41;;;;;;;36.05;21.92;;;;;;;6.80;100.00;101001.19;10259603;28;20490;-71
2021/11/05 01:38:38;;;;;;;39.38;24.15;;;;;;;6.75;100.00;101003.94;10266879;28;20729;-70
2021/11/05 01:43:38;;;;;;;38.92;23.00;;;;;;;6.74;100.00;101018.63;10264657;28;20118;-70
2021/11/05 01:48:37;;;;;;;36.95;21.95;;;;;;;6.76;100.00;101016.44;10268504;28;20098;-71
2021/11/05 01:53:34;;;;;;;37.10;22.48;;;;;;;6.84;100.00;101023.97;10281295;28;20495;-70
2021/11/05 01:58:31;;;;;;;37.83;22.48;;;;;;;6.85;100.00;101036.47;10279489;28;20490;-70
2021/11/05 02:03:27;;;;;;;40.42;23.17;;;;;;;6.87;100.00;101045.16;10271240;28;20076;-70
2021/11/05 02:08:24;;;;;;;38.63;22.50;;;;;;;6.86;100.00;101040.81;10273327;28;20139;-70
2021/11/05 02:13:22;;;;;;;38.47;23.02;;;;;;;6.87;100.00;101056.03;10268728;28;20063;-70
2021/11/05 02:18:19;;;;;;;38.92;22.63;;;;;;;6.88;100.00;101062.28;10277722;28;20041;-70
2021/11/05 02:23:15;;;;;;;40.55;22.90;;;;;;;6.80;100.00;101061.00;10277885;28;20090;-70
2021/11/05 02:28:12;;;;;;;39.17;22.23;;;;;;;6.79;100.00;101064.78;10285064;28;20103;-71
2021/11/05 02:33:09;;;;;;;40.63;22.90;;;;;;;6.72;100.00;101061.59;10279828;28;20129;-70
2021/11/05 02:38:06;;;;;;;39.28;23.13;;;;;;;6.73;100.00;101076.81;10278623;28;20107;-69
2021/11/05 02:43:02;;;;;;;41.97;21.33;;;;;;;6.76;100.00;101076.22;10278223;28;20563;-69
2021/11/05 02:47:59;;;;;;;41.38;23.17;;;;;;;6.76;100.00;101081.66;10269954;28;20046;-69
2021/11/05 02:52:55;;;;;;;39.17;23.38;;;;;;;6.74;100.00;101100.16;10286799;28;20044;-70
2021/11/05 02:57:52;;;;;;;40.30;22.73;;;;;;;6.72;100.00;101096.91;10273373;28;20519;-71
2021/11/05 03:02:48;;;;;;;40.25;23.25;;;;;;;6.78;100.00;101105.81;10280760;28;20494;-70
2021/11/05 03:07:45;;;;;;;38.92;23.02;;;;;;;6.72;100.00;101107.78;10285566;28;20044;-69
2021/11/05 03:12:44;;;;;;;37.10;21.67;;;;;;;6.72;100.00;101113.22;10270348;28;20048;-70
2021/11/05 03:17:42;;;;;;;39.80;21.35;;;;;;;6.72;100.00;101118.66;10278904;28;20057;-70
2021/11/05 03:22:39;;;;;;;40.35;22.30;;;;;;;6.68;100.00;101131.16;10272408;28;20072;-70
2021/11/05 03:27:35;;;;;;;37.08;20.10;;;;;;;6.68;100.00;101142.03;10294210;28;20124;-70
2021/11/05 03:32:32;;;;;;;36.53;21.70;;;;;;;6.70;100.00;101142.56;10284881;28;20071;-71
2021/11/05 03:37:28;;;;;;;44.28;22.38;;;;;;;6.79;100.00;101150.94;10278881;28;20040;-70
2021/11/05 03:42:25;;;;;;;34.78;21.52;;;;;;;6.85;100.00;101156.06;10274227;28;20080;-70
2021/11/05 03:47:21;;;;;;;38.22;21.48;;;;;;;6.88;100.00;101160.94;10270494;28;20145;-71
2021/11/05 03:52:18;;;;;;;32.60;18.73;;;;;;;6.91;100.00;101165.81;10276354;28;21503;-71
2021/11/05 03:57:14;;;;;;;34.20;19.98;;;;;;;6.89;100.00;101170.75;10287052;28;20048;-70
2021/11/05 04:02:11;;;;;;;35.50;20.85;;;;;;;6.82;100.00;101180.28;10275596;28;20458;-71
2021/11/05 04:07:07;;;;;;;36.70;20.98;;;;;;;6.79;100.00;101184.38;10279325;28;20472;-69
2021/11/05 04:12:04;;;;;;;36.50;21.17;;;;;;;6.79;100.00;101195.25;10265919;28;20128;-69
2021/11/05 04:17:01;;;;;;;32.13;19.13;;;;;;;6.84;100.00;101208.78;10264415;28;20045;-70
2021/11/05 04:21:57;;;;;;;33.95;19.33;;;;;;;6.82;100.00;101210.97;10277502;28;20076;-70
2021/11/05 04:26:54;;;;;;;35.40;19.50;;;;;;;6.85;100.00;101221.31;10255965;28;20467;-70
2021/11/05 04:31:50;;;;;;;37.08;20.05;;;;;;;6.89;100.00;101227.81;10266403;28;20413;-71
2021/11/05 04:36:48;;;;;;;33.00;20.42;;;;;;;7.01;100.00;101234.78;10278078;28;20791;-70
2021/11/05 04:41:45;;;;;;;32.97;18.85;;;;;;;7.07;100.00;101244.56;10288079;28;20048;-70
2021/11/05 04:46:42;;;;;;;40.67;20.40;;;;;;;7.14;100.00;101255.94;10271620;28;20056;-69
2021/11/05 04:51:39;;;;;;;33.25;19.13;;;;;;;7.10;100.00;101261.13;10265947;28;20139;-70
2021/11/05 04:56:42;;;;;;;29.50;18.98;;;;;;;7.04;100.00;101275.03;10274520;28;20629;-70
2021/11/05 05:01:39;;;;;;;36.20;20.80;;;;;;;7.06;100.00;101281.03;10236675;28;20152;-69
2021/11/05 05:06:35;;;;;;;29.88;17.55;;;;;;;7.02;100.00;101286.19;10232688;28;20124;-69
2021/11/05 05:11:32;;;;;;;37.45;19.15;;;;;;;7.06;100.00;101291.88;10231380;28;20107;-71
2021/11/05 05:16:29;;;;;;;31.48;17.55;;;;;;;7.01;100.00;101300.06;10239133;28;20435;-71
2021/11/05 05:21:26;;;;;;;30.83;18.77;;;;;;;7.01;100.00;101300.06;10231468;28;20402;-71
2021/11/05 05:26:23;;;;;;;32.13;20.42;;;;;;;7.04;100.00;101311.19;10225847;28;20481;-70
2021/11/05 05:31:19;;;;;;;32.15;17.08;;;;;;;7.02;100.00;101312.56;10214279;28;20496;-73
2021/11/05 05:36:16;;;;;;;31.00;18.65;;;;;;;6.90;100.00;101316.41;10222487;28;20045;-72
2021/11/05 05:41:12;;;;;;;30.08;18.00;;;;;;;6.93;100.00;101321.28;10229280;28;20049;-70
2021/11/05 05:46:10;;;;;;;27.52;17.05;;;;;;;6.89;100.00;101336.56;10214024;28;20499;-70
2021/11/05 05:51:07;;;;;;;35.38;19.88;;;;;;;6.88;100.00;101343.06;10228681;28;20050;-69
2021/11/05 05:56:03;;;;;;;32.92;18.40;;;;;;;6.88;100.00;101348.50;10239809;28;20495;-70
2021/11/05 06:01:00;;;;;;;30.08;18.30;;;;;;;6.85;100.00;101357.22;10236812;28;20066;-72
2021/11/05 06:05:57;;;;;;;35.20;18.17;;;;;;;6.78;100.00;101364.84;10223279;28;20052;-70
2021/11/05 06:10:54;;;;;;;29.52;17.75;;;;;;;6.89;100.00;101373.78;10215565;28;20045;-70
2021/11/05 06:15:51;;;;;;;38.75;17.25;;;;;;;6.88;100.00;101383.84;10205239;28;20077;-72
2021/11/05 06:20:48;;;;;;;33.10;17.63;;;;;;;6.91;100.00;101394.16;10214389;28;20092;-69
2021/11/05 06:25:44;;;;;;;31.60;18.17;;;;;;;6.91;100.00;101401.50;10205793;28;20049;-70
2021/11/05 06:30:41;;;;;;;30.65;15.77;;;;;;;6.93;100.00;101412.91;10211549;28;20045;-71
2021/11/05 06:35:39;;;;;;;31.88;17.38;;;;;;;6.92;100.00;101414.84;10208301;28;20068;-70
2021/11/05 06:40:35;;;;;;;29.95;17.63;;;;;;;6.95;100.00;101418.91;10203184;28;20068;-70
2021/11/05 06:45:32;;;;;;;31.02;18.13;;;;;;;6.97;100.00;101424.06;10214146;28;20099;-71
2021/11/05 06:50:28;;;;;;;29.65;17.85;;;;;;;6.94;100.00;101430.88;10205057;28;20061;-71
2021/11/05 06:55:25;;;;;;;31.75;16.65;;;;;;;6.95;100.00;101449.63;10191186;28;20074;-70
2021/11/05 07:00:22;;;;;;;28.50;15.55;;;;;;;7.00;100.00;101456.13;10204962;28;20087;-69
2021/11/05 07:05:19;;;;;;;25.48;15.48;;;;;;;6.99;100.00;101460.75;10206557;28;20504;-74
2021/11/05 07:10:16;;;;;;;31.27;16.42;;;;;;;7.01;100.00;101468.63;10201716;28;20050;-69
2021/11/05 07:15:13;;;;;;;32.10;15.10;;;;;;;6.99;100.00;101468.13;10188575;28;20129;-71
2021/11/05 07:20:09;;;;;;;31.67;15.70;;;;;;;6.95;100.00;101479.53;10207510;28;20050;-70
2021/11/05 07:25:08;;;;;;;28.02;16.17;;;;;;;6.97;100.00;101479.25;10206580;28;20060;-69
2021/11/05 07:30:08;;;;;;;28.45;15.02;;;;;;;7.04;100.00;101484.41;10209718;28;20056;-69
2021/11/05 07:35:06;;;;;;;25.00;14.68;;;;;;;7.10;100.00;101496.88;10211548;28;20587;-71
2021/11/05 07:40:03;;;;;;;21.98;13.95;;;;;;;7.15;100.00;101508.59;10209852;28;20084;-70
2021/11/05 07:45:00;;;;;;;21.40;13.55;;;;;;;7.25;100.00;101518.63;10200461;28;20092;-70
2021/11/05 07:49:56;;;;;;;21.13;12.82;;;;;;;7.30;100.00;101521.31;10199752;28;20464;-73
2021/11/05 07:54:53;;;;;;;20.48;11.52;;;;;;;7.40;100.00;101530.56;10207133;28;20073;-72
2021/11/05 07:59:52;;;;;;;18.20;11.02;;;;;;;7.50;100.00;101536.78;10180536;28;20045;-70
2021/11/05 08:04:49;;;;;;;20.23;11.48;;;;;;;7.63;100.00;101551.69;10206304;28;20041;-69
2021/11/05 08:09:45;;;;;;;17.63;9.35;;;;;;;7.73;100.00;101551.69;10184172;28;20073;-70
2021/11/05 08:14:44;;;;;;;19.42;9.13;;;;;;;7.80;100.00;101563.09;10203130;28;20642;-69
2021/11/05 08:19:41;;;;;;;17.23;9.55;;;;;;;7.87;100.00;101570.16;10195090;28;20077;-69
2021/11/05 08:24:37;;;;;;;16.60;8.57;;;;;;;7.96;100.00;101579.34;10193243;28;20049;-71
2021/11/05 08:29:34;;;;;;;16.25;8.73;;;;;;;8.05;100.00;101580.38;10203072;28;20091;-70
2021/11/05 08:34:30;;;;;;;15.68;7.70;;;;;;;8.10;100.00;101591.28;10194669;28;20485;-69
2021/11/05 08:39:27;;;;;;;13.02;7.28;;;;;;;8.22;100.00;101597.22;10197691;28;20069;-70
2021/11/05 08:44:24;;;;;;;17.35;7.03;;;;;;;8.32;100.00;101606.44;10203597;28;20408;-70
2021/11/05 08:49:23;;;;;;;16.63;7.28;;;;;;;8.46;100.00;101621.09;10196356;28;20046;-70
2021/11/05 08:54:20;;;;;;;11.88;6.75;;;;;;;8.55;100.00;101627.56;10199491;28;20132;-71
2021/11/05 08:59:19;;;;;;;14.25;7.20;;;;;;;8.61;100.00;101626.47;10204056;28;20422;-70
2021/11/05 09:04:17;;;;;;;13.85;5.65;;;;;;;8.68;100.00;101633.50;10196909;28;20045;-70
2021/11/05 09:09:17;;;;;;;7.57;4.13;;;;;;;8.69;100.00;101632.41;10213227;28;20431;-69
2021/11/05 09:14:13;;;;;;;12.25;4.25;;;;;;;8.80;100.00;101636.69;10188831;28;20131;-71
2021/11/05 09:19:30;;;;;;;9.45;4.93;;;;;;;8.94;100.00;101651.31;10209771;28;20052;-70
2021/11/05 09:24:26;;;;;;;15.65;5.93;;;;;;;9.02;100.00;101658.88;10185807;28;20045;-71
2021/11/05 09:29:24;;;;;;;13.60;6.13;;;;;;;9.08;100.00;101672.50;10205080;28;20049;-70
2021/11/05 09:34:20;;;;;;;7.63;4.47;;;;;;;9.16;100.00;101680.88;10211028;28;20136;-73
2021/11/05 09:39:17;;;;;;;10.02;4.50;;;;;;;9.17;100.00;101676.25;10201655;28;20050;-70
2021/11/05 09:44:13;;;;;;;8.95;4.43;;;;;;;9.34;99.79;101681.31;10208310;28;20145;-72
2021/11/05 09:49:10;;;;;;;15.43;4.97;;;;;;;9.45;98.98;101683.66;10210319;28;20073;-71
2021/11/05 09:54:06;;;;;;;9.27;4.57;;;;;;;9.65;98.53;101690.84;10214767;28;20046;-72
2021/11/05 09:59:03;;;;;;;8.43;4.30;;;;;;;9.83;97.92;101700.22;10205261;28;20108;-70
2021/11/05 10:04:00;;;;;;;10.48;4.50;;;;;;;10.00;97.15;101704.41;10214439;28;20511;-72
2021/11/05 10:08:57;;;;;;;10.68;3.63;;;;;;;10.03;95.25;101710.13;10199270;28;20041;-70
2021/11/05 10:13:55;;;;;;;7.15;3.20;;;;;;;9.98;94.10;101712.09;10198424;28;20045;-70
2021/11/05 10:19:07;;;;;;;9.45;2.20;;;;;;;9.98;94.07;101712.09;10212365;28;20132;-70
2021/11/05 10:24:17;;;;;;;8.80;2.85;;;;;;;9.96;94.40;101725.25;10200511;28;20041;-71
2021/11/05 10:29:32;;;;;;;6.75;2.75;;;;;;;10.14;94.18;101721.75;10225075;28;20461;-72
2021/11/05 10:34:47;;;;;;;10.20;2.47;;;;;;;10.24;93.73;101721.66;10199470;28;20068;-71
2021/11/05 10:39:54;;;;;;;10.10;2.10;;;;;;;10.29;92.92;101723.53;10204594;28;20124;-70
2021/11/05 10:45:25;;;;;;;8.70;1.70;;;;;;;10.44;92.87;101730.72;10189659;28;20056;-71
2021/11/05 10:50:41;;;;;;;8.00;1.85;;;;;;;10.41;92.10;101725.84;10180206;28;20085;-71
2021/11/05 10:55:51;;;;;;;8.10;1.27;;;;;;;10.40;89.63;101735.19;10202102;28;20064;-72
2021/11/05 11:00:51;;;;;;;4.60;1.25;;;;;;;10.37;88.59;101746.69;10201982;28;20511;-70
2021/11/05 11:05:47;;;;;;;6.40;1.17;;;;;;;10.56;88.54;101733.88;10228570;28;20041;-70
2021/11/05 11:10:45;;;;;;;8.73;0.90;;;;;;;10.63;86.79;101734.34;10206099;28;20089;-72
2021/11/05 11:15:41;;;;;;;6.72;1.27;;;;;;;10.74;86.01;101738.56;10212237;28;20495;-70
2021/11/05 11:20:39;;;;;;;4.53;1.00;;;;;;;10.81;84.82;101734.63;10199052;28;20076;-71
2021/11/05 11:25:36;;;;;;;5.22;0.60;;;;;;;10.81;83.37;101745.59;10199873;28;20041;-71
2021/11/05 11:30:33;;;;;;;7.63;1.00;;;;;;;10.79;82.77;101736.84;10200852;28;20103;-74
2021/11/05 11:35:30;;;;;;;6.20;0.70;;;;;;;10.74;83.01;101752.25;10202984;28;20475;-72
2021/11/05 11:40:26;;;;;;;5.97;1.20;;;;;;;10.87;82.43;101749.88;10207603;28;20065;-70
2021/11/05 11:45:23;;;;;;;9.77;1.52;;;;;;;10.94;81.96;101750.34;10211068;28;20072;-70
2021/11/05 11:50:22;;;;;;;4.70;0.75;;;;;;;11.10;81.29;101751.75;10215850;28;20140;-73
2021/11/05 11:55:18;;;;;;;5.50;1.05;;;;;;;11.12;80.47;101760.47;10193992;28;20042;-71
2021/11/05 12:00:20;;;;;;;4.93;0.75;;;;;;;11.07;81.25;101760.56;10199293;28;20049;-70
2021/11/05 12:05:29;;;;;;;9.57;1.00;;;;;;;11.08;81.44;101751.22;10201580;28;20184;-70
2021/11/05 12:10:27;;;;;;;8.25;1.45;;;;;;;11.25;79.86;101758.09;10211355;28;20108;-70
2021/11/05 12:15:23;;;;;;;4.80;0.80;;;;;;;11.28;80.80;101758.31;10197780;28;20057;-73
2021/11/05 12:20:33;;;;;;;3.28;0.70;;;;;;;11.23;81.62;101754.84;10196610;28;20081;-70
2021/11/05 12:25:43;;;;;;;8.98;1.42;;;;;;;11.14;81.64;101761.00;10199820;28;20099;-70
2021/11/05 12:30:40;;;;;;;11.00;0.80;;;;;;;10.91;82.05;101778.28;10205845;28;20068;-73
2021/11/05 12:35:48;;;;;;;6.45;1.33;;;;;;;10.84;82.72;101777.84;10204119;28;20042;-71
2021/11/05 12:40:55;;;;;;;4.75;0.45;;;;;;;10.72;81.59;101784.56;10205515;28;20053;-71
2021/11/05 12:46:03;;;;;;;2.47;0.38;;;;;;;10.76;79.44;101792.16;10195439;28;20041;-73
2021/11/05 12:50:59;;;;;;;4.70;0.73;;;;;;;11.38;75.20;101784.72;10195064;28;20097;-73
2021/11/05 12:55:55;;;;;;;5.07;0.40;;;;;;;11.87;73.22;101788.06;10197684;28;20057;-74
2021/11/05 13:00:52;;;;;;;3.47;0.47;;;;;;;12.13;70.17;101775.53;10210344;28;20049;-72
2021/11/05 13:05:54;;;;;;;6.57;1.20;;;;;;;12.25;72.41;101794.25;10207124;28;20569;-70
2021/11/05 13:10:51;;;;;;;3.30;0.50;;;;;;;12.28;72.26;101799.16;10200941;28;20499;-70
2021/11/05 13:15:49;;;;;;;3.88;0.60;;;;;;;12.41;73.00;101803.81;10197327;28;20053;-70
2021/11/05 13:20:47;;;;;;;5.65;0.88;;;;;;;11.93;73.74;101820.59;10208840;28;20073;-70
2021/11/05 13:25:46;;;;;;;4.05;0.57;;;;;;;11.62;76.38;101824.91;10199824;28;20065;-71
2021/11/05 13:30:51;;;;;;;7.43;1.00;;;;;;;11.40;76.29;101812.63;10204700;28;20049;-72
2021/11/05 13:35:57;;;;;;;5.63;0.60;;;;;;;11.28;76.34;101809.50;10202416;28;20042;-70
2021/11/05 13:41:02;;;;;;;4.32;0.68;;;;;;;11.12;75.91;101817.16;10193155;28;20057;-71
2021/11/05 13:46:06;;;;;;;4.05;0.50;;;;;;;11.11;77.15;101816.31;10202873;28;20046;-74
2021/11/05 13:51:10;;;;;;;4.80;0.63;;;;;;;11.02;76.21;101812.59;10202576;28;20062;-70
2021/11/05 13:56:16;;;;;;;5.43;0.70;;;;;;;10.97;76.39;101809.94;10207513;28;20050;-70
2021/11/05 14:01:19;;;;;;;3.40;0.40;;;;;;;10.87;75.99;101826.50;10194282;28;20068;-71
2021/11/05 14:06:15;;;;;;;2.58;0.35;;;;;;;10.62;78.62;101844.81;10213259;28;20133;-69
2021/11/05 14:11:12;;;;;;;5.05;0.93;;;;;;;10.34;84.56;101873.03;10213902;28;20053;-73
2021/11/05 14:16:11;;;;;;;2.97;0.52;;;;;;;10.02;90.24;101871.63;10208053;28;20081;-70
2021/11/05 14:21:22;;;;;;;4.00;0.70;;;;;;;9.93;91.78;101878.78;10206183;28;20049;-73
2021/11/05 14:26:23;;;;;;;6.40;0.80;;;;;;;9.86;93.07;101881.84;10206896;28;20071;-73
2021/11/05 14:31:19;;;;;;;7.60;0.70;;;;;;;9.81;92.70;101882.69;10214203;28;20050;-74
2021/11/05 14:36:19;;;;;;;4.50;1.05;;;;;;;9.66;93.18;101880.09;10195925;28;20053;-71
2021/11/05 14:41:16;;;;;;;5.20;0.90;;;;;;;9.65;92.37;101883.91;10208961;28;20056;-72
2021/11/05 14:46:12;;;;;;;6.90;0.65;;;;;;;9.60;92.14;101892.13;10206040;28;20050;-72
2021/11/05 14:51:16;;;;;;;7.10;1.10;;;;;;;9.53;93.15;101897.09;10215586;28;20108;-70
2021/11/05 14:56:16;;;;;;;6.65;1.20;;;;;;;9.51;93.51;101904.75;10201182;28;20840;-74
2021/11/05 15:01:16;;;;;;;7.88;1.38;;;;;;;9.54;93.61;101907.75;10207706;28;20132;-70
2021/11/05 15:06:15;;;;;;;7.43;1.13;;;;;;;9.55;93.27;101895.72;10212381;28;20041;-71
2021/11/05 15:11:27;;;;;;;5.32;0.88;;;;;;;9.60;92.38;101909.31;10180195;28;20088;-71
2021/11/05 15:16:24;;;;;;;6.60;0.60;;;;;;;9.64;92.13;101915.84;10188703;28;20053;-73
2021/11/05 15:21:22;;;;;;;7.78;1.23;;;;;;;9.64;92.91;101931.44;10199045;28;20128;-73
2021/11/05 15:26:20;;;;;;;6.85;1.08;;;;;;;9.55;92.84;101933.13;10193739;28;20471;-73
2021/11/05 15:31:17;;;;;;;6.50;1.00;;;;;;;9.50;93.21;101941.34;10201397;28;20045;-73
2021/11/05 15:36:14;;;;;;;5.13;0.65;;;;;;;9.41;93.05;101950.09;10204110;28;20140;-74
2021/11/05 15:41:13;;;;;;;7.63;0.80;;;;;;;9.36;93.74;101947.41;10207868;28;20077;-74
2021/11/05 15:46:12;;;;;;;7.65;0.90;;;;;;;9.39;93.68;101952.28;10190765;28;20092;-72
2021/11/05 15:51:09;;;;;;;7.22;1.02;;;;;;;9.44;93.91;101955.00;10176510;28;20066;-72
2021/11/05 15:56:12;;;;;;;6.18;0.80;;;;;;;9.46;93.54;101961.00;10172784;28;20045;-72
2021/11/05 16:01:09;;;;;;;7.80;1.08;;;;;;;9.47;94.21;101970.84;10180151;28;20069;-72
2021/11/05 16:06:08;;;;;;;6.75;1.10;;;;;;;9.50;93.56;101977.66;10184581;28;20080;-72
2021/11/05 16:11:07;;;;;;;6.53;0.95;;;;;;;9.44;93.28;101982.28;10198449;28;20049;-72
2021/11/05 16:16:04;;;;;;;6.88;1.33;;;;;;;9.37;93.49;101987.25;10207407;28;20053;-73
2021/11/05 16:21:00;;;;;;;4.75;0.95;;;;;;;9.33;94.57;101991.63;10195275;28;20096;-72
2021/11/05 16:25:58;;;;;;;15.02;1.55;;;;;;;9.25;94.31;102000.38;10200606;28;20517;-72
2021/11/05 16:30:59;;;;;;;9.23;0.95;;;;;;;9.18;95.07;101999.88;10192257;28;20447;-72
2021/11/05 16:35:55;;;;;;;8.45;1.48;;;;;;;9.18;96.02;102006.13;10195664;28;20076;-70
2021/11/05 16:40:52;;;;;;;7.60;0.93;;;;;;;9.25;95.59;102012.13;10202786;28;20041;-71
2021/11/05 16:45:54;;;;;;;10.75;1.42;;;;;;;9.23;96.30;102014.28;10198685;28;20041;-73
2021/11/05 16:50:51;;;;;;;10.10;1.52;;;;;;;9.20;96.81;102014.06;10204221;28;20737;-73
2021/11/05 16:55:48;;;;;;;9.85;1.40;;;;;;;9.24;97.50;102015.13;10191501;28;20085;-74
2021/11/05 17:00:44;;;;;;;5.80;0.93;;;;;;;9.17;98.77;102020.06;10198634;28;20076;-74
2021/11/05 17:05:41;;;;;;;9.05;1.90;;;;;;;9.18;98.58;102029.88;10198979;28;20041;-74
2021/11/05 17:10:42;;;;;;;7.90;1.63;;;;;;;9.17;98.45;102022.81;10182388;28;20101;-73
2021/11/05 17:15:39;;;;;;;7.57;1.35;;;;;;;9.17;99.01;102031.00;10186303;28;20145;-73
2021/11/05 17:20:36;;;;;;;8.55;1.50;;;;;;;9.03;98.69;102042.47;10199502;28;20045;-73
2021/11/05 17:25:33;;;;;;;7.28;2.28;;;;;;;9.03;98.90;102042.47;10199754;28;20041;-75
2021/11/05 17:30:30;;;;;;;7.85;2.13;;;;;;;8.94;98.64;102049.56;10199094;28;20046;-73
2021/11/05 17:35:26;;;;;;;12.95;1.85;;;;;;;8.84;98.46;102055.00;10197211;28;20647;-74
2021/11/05 17:40:23;;;;;;;9.70;2.33;;;;;;;8.81;98.36;102055.56;10184651;28;20047;-73
2021/11/05 17:45:19;;;;;;;10.02;2.13;;;;;;;8.76;98.11;102061.84;10206509;28;20099;-73
2021/11/05 17:50:16;;;;;;;8.00;1.95;;;;;;;8.75;97.70;102062.09;10195634;28;20050;-72
2021/11/05 17:55:14;;;;;;;8.35;1.73;;;;;;;8.74;97.88;102079.56;10195358;28;20108;-73
2021/11/05 18:00:13;;;;;;;12.52;2.97;;;;;;;8.68;97.73;102077.91;10191295;28;20062;-73
2021/11/05 18:05:10;;;;;;;5.50;1.60;;;;;;;8.67;97.52;102079.00;10205075;28;20511;-72
2021/11/05 18:10:08;;;;;;;11.77;2.03;;;;;;;8.69;96.88;102076.84;10181066;28;20081;-72
2021/11/05 18:15:08;;;;;;;8.02;1.83;;;;;;;8.59;96.46;102081.19;10199789;28;20601;-73
2021/11/05 18:20:08;;;;;;;15.15;2.10;;;;;;;8.56;96.24;102083.63;10182089;28;20725;-74
2021/11/05 18:25:07;;;;;;;7.53;2.00;;;;;;;8.50;96.12;102092.91;10181804;28;21781;-76
2021/11/05 18:30:07;;;;;;;11.00;2.65;;;;;;;8.49;95.70;102102.16;10185502;28;20594;-72
2021/11/05 18:35:05;;;;;;;8.18;2.13;;;;;;;8.47;96.73;102102.44;10186750;28;20048;-73
2021/11/05 18:40:03;;;;;;;11.35;2.40;;;;;;;8.45;96.05;102091.00;10187771;28;20085;-71
2021/11/05 18:45:02;;;;;;;9.95;2.83;;;;;;;8.42;95.82;102107.88;10215360;28;20528;-72
2021/11/05 18:49:59;;;;;;;15.40;3.80;;;;;;;8.43;96.01;102104.06;10212505;28;20077;-72
2021/11/05 18:54:56;;;;;;;11.80;2.30;;;;;;;8.36;96.01;102092.56;10215684;28;20136;-73
2021/11/05 18:59:53;;;;;;;9.23;2.17;;;;;;;8.28;96.36;102101.25;10216219;28;20076;-73
2021/11/05 19:04:50;;;;;;;9.48;2.00;;;;;;;8.31;96.14;102107.00;10223920;28;20076;-72
2021/11/05 19:09:47;;;;;;;12.32;2.40;;;;;;;8.29;96.41;102116.53;10226119;28;20111;-73
2021/11/05 19:14:44;;;;;;;10.45;2.78;;;;;;;8.23;96.79;102119.22;10228102;28;20064;-72
2021/11/05 19:19:41;;;;;;;9.00;1.83;;;;;;;8.21;95.71;102113.25;10219579;28;20107;-73
2021/11/05 19:24:37;;;;;;;9.07;2.47;;;;;;;8.20;96.26;102117.03;10221406;28;20053;-75
2021/11/05 19:29:35;;;;;;;12.30;2.75;;;;;;;8.27;96.41;102105.91;10217389;28;20072;-73
2021/11/05 19:34:32;;;;;;;13.70;3.00;;;;;;;8.22;96.51;102109.44;10225301;28;20045;-73
2021/11/05 19:39:29;;;;;;;9.32;1.95;;;;;;;8.19;95.79;102109.97;10213326;28;20048;-74
2021/11/05 19:44:26;;;;;;;8.77;1.92;;;;;;;8.24;96.09;102117.34;10220974;28;20034;-75
2021/11/05 19:49:26;;;;;;;15.32;2.42;;;;;;;8.22;95.96;102114.88;10206939;28;20128;-73
2021/11/05 19:54:22;;;;;;;7.50;2.28;;;;;;;8.18;95.71;102108.31;10224005;28;20049;-73
2021/11/05 19:59:19;;;;;;;8.43;1.80;;;;;;;8.16;95.73;102121.38;10211024;28;20659;-74
2021/11/05 20:04:16;;;;;;;13.25;3.20;;;;;;;8.13;95.96;102124.66;10234663;28;20616;-73
2021/11/05 20:09:13;;;;;;;9.85;2.00;;;;;;;8.11;95.99;102113.19;10233971;28;20099;-73
2021/11/05 20:14:10;;;;;;;9.80;1.50;;;;;;;8.05;95.98;102124.34;10225291;28;20069;-73
2021/11/05 20:19:07;;;;;;;9.15;1.38;;;;;;;7.99;96.12;102112.63;10218754;28;20070;-74
2021/11/05 20:24:04;;;;;;;13.23;2.00;;;;;;;7.93;96.20;102121.84;10228860;28;20046;-73
2021/11/05 20:29:01;;;;;;;8.77;1.60;;;;;;;7.96;96.50;102126.75;10228343;28;20088;-73
2021/11/05 20:33:58;;;;;;;11.02;1.80;;;;;;;8.01;96.81;102134.97;10224813;28;20053;-73
2021/11/05 20:38:54;;;;;;;11.65;1.58;;;;;;;8.06;96.47;102147.78;10234352;28;20114;-73
2021/11/05 20:43:51;;;;;;;11.27;2.20;;;;;;;8.08;96.06;102140.97;10219554;28;20045;-73
2021/11/05 20:48:47;;;;;;;12.05;1.70;;;;;;;8.09;95.64;102142.59;10224811;28;20053;-73
2021/11/05 20:53:44;;;;;;;9.02;1.80;;;;;;;8.13;96.22;102149.16;10207449;28;20092;-73
2021/11/05 20:58:42;;;;;;;21.77;3.67;;;;;;;8.07;97.32;102155.66;10219554;28;20140;-73
2021/11/05 21:03:39;;;;;;;9.15;1.67;;;;;;;8.12;97.30;102163.03;10238408;28;20053;-74
2021/11/05 21:08:36;;;;;;;7.85;1.70;;;;;;;8.06;99.23;102164.94;10214525;28;20045;-74
2021/11/05 21:13:33;;;;;;;14.13;3.00;;;;;;;8.01;99.75;102162.19;10222318;28;20514;-73
2021/11/05 21:18:30;;;;;;;11.55;2.08;;;;;;;8.04;100.00;102166.28;10214047;28;20103;-74
2021/11/05 21:23:26;;;;;;;12.48;2.60;;;;;;;7.98;100.00;102162.72;10205529;28;20077;-74
2021/11/05 21:28:24;;;;;;;9.30;1.83;;;;;;;7.95;100.00;102157.81;10223697;28;20053;-75
2021/11/05 21:33:21;;;;;;;13.10;2.42;;;;;;;7.98;100.00;102168.16;10228514;28;20053;-73
2021/11/05 21:38:20;;;;;;;10.65;2.45;;;;;;;8.05;100.00;102166.00;10220783;28;20916;-73
2021/11/05 21:43:16;;;;;;;10.73;2.53;;;;;;;8.06;100.00;102181.28;10226707;28;20054;-73
2021/11/05 21:48:13;;;;;;;6.97;2.53;;;;;;;8.06;100.00;102178.56;10232581;28;20072;-74
2021/11/05 21:53:10;;;;;;;9.35;3.17;;;;;;;8.06;100.00;102186.72;10253616;28;20077;-74
2021/11/05 21:58:08;;;;;;;12.50;3.53;;;;;;;8.11;100.00;102183.22;10236102;28;20638;-72
2021/11/05 22:03:05;;;;;;;7.90;2.80;;;;;;;8.13;100.00;102187.31;10243382;28;20045;-73
2021/11/05 22:08:01;;;;;;;10.82;3.20;;;;;;;8.12;100.00;102180.25;10239730;28;20187;-72
2021/11/05 22:12:58;;;;;;;13.88;3.10;;;;;;;8.17;100.00;102182.97;10234369;28;20100;-73
2021/11/05 22:17:54;;;;;;;19.17;4.93;;;;;;;8.18;100.00;102195.50;10234618;28;20095;-72
2021/11/05 22:22:51;;;;;;;11.73;2.60;;;;;;;8.22;100.00;102191.16;10233558;28;20049;-71
2021/11/05 22:27:48;;;;;;;7.65;2.58;;;;;;;8.23;100.00;102181.09;10236048;28;20037;-71
2021/11/05 22:32:44;;;;;;;10.77;2.40;;;;;;;8.26;100.00;102182.44;10228321;28;20049;-71
2021/11/05 22:37:43;;;;;;;6.93;2.72;;;;;;;8.29;100.00;102192.84;10231450;28;20494;-71
2021/11/05 22:42:53;;;;;;;11.85;3.97;;;;;;;8.27;100.00;102203.19;10229859;28;20045;-71